Yuzer 1 — YJWD6 — position and weather

sailwx.info

Track history (hours):
 
Tides and Currents Weather Stations Pressure Air Temp Water Temp Dewpoint Dewpoint Depression Visibility Wind Speed Wind Dir Waves Ship Positions

Yuzer 1

Last reported at 2017-Dec-16 07:48 UTC. Time now 2017-Dec-16 09:25 UTC.
Position N 45°15' E 036°28'.

Length 88 m; draft 4.4 m.

Type: Cargo ship. MMSI: 577363000.

Date/timePositionNaut miles runAvg speedWind from/ knotsBaromVisibWave heightAir tempDewpointWater temp
2017-Dec-16 07:48N 45°15' E 036°28'2 6.8
2017-Dec-16 07:30N 45°17' E 036°28'3 6.1
2017-Dec-16 07:00N 45°19' E 036°31'4 7.4
2017-Dec-16 06:30N 45°20' E 036°36'3 6.6
2017-Dec-16 06:00N 45°22' E 036°40'3 6.9
2017-Dec-16 05:30N 45°26' E 036°40'2 4.5
2017-Dec-16 05:00N 45°28' E 036°39'1 1.4
2017-Dec-16 04:28N 45°29' E 036°39'0 0.0
2017-Dec-16 03:58N 45°29' E 036°39'0 0.0
2017-Dec-16 03:28N 45°29' E 036°39'0 0.0
2017-Dec-16 02:58N 45°29' E 036°39'0 0.0
2017-Dec-16 02:28N 45°29' E 036°39'0 0.0
2017-Dec-16 01:58N 45°29' E 036°39'0 0.0
2017-Dec-16 01:25N 45°29' E 036°39'0 0.0
2017-Dec-16 00:58N 45°29' E 036°39'0 0.0
2017-Dec-16 00:28N 45°29' E 036°39'0 0.0
2017-Dec-15 23:58N 45°29' E 036°39'0 0.0
2017-Dec-15 23:28N 45°29' E 036°39'0 0.0
2017-Dec-15 22:58N 45°29' E 036°39'0 0.0
2017-Dec-15 22:25N 45°29' E 036°39'0 0.0
2017-Dec-15 21:55N 45°29' E 036°39'0 0.0
2017-Dec-15 21:28N 45°29' E 036°39'0 0.0
2017-Dec-15 20:58N 45°29' E 036°39'0 0.0
2017-Dec-15 20:28N 45°29' E 036°39'0 0.0
2017-Dec-15 19:58N 45°29' E 036°39'0 0.0
2017-Dec-15 19:25N 45°29' E 036°39'0 0.0
2017-Dec-15 18:58N 45°29' E 036°39'0 0.0
2017-Dec-15 18:28N 45°29' E 036°39'0 0.0
2017-Dec-15 17:58N 45°29' E 036°39'0 0.0
2017-Dec-15 17:28N 45°29' E 036°39'0 0.0
2017-Dec-15 16:52N 45°29' E 036°39'0 0.0
2017-Dec-15 16:28N 45°29' E 036°39'0 0.0
2017-Dec-15 15:58N 45°29' E 036°39'0 0.0
2017-Dec-15 15:28N 45°29' E 036°39'0 0.0
2017-Dec-15 14:58N 45°29' E 036°39'0 0.0
2017-Dec-15 14:28N 45°29' E 036°39'0 0.0
2017-Dec-15 14:01N 45°29' E 036°39'0 0.0
2017-Dec-15 13:31N 45°29' E 036°39'0 0.0
2017-Dec-15 13:00N 45°29' E 036°39'0 0.0
2017-Dec-15 12:30N 45°29' E 036°39'0 0.0
2017-Dec-15 12:00N 45°29' E 036°39'0 0.0
2017-Dec-15 11:27N 45°29' E 036°39'0 0.0
2017-Dec-15 10:57N 45°29' E 036°39'0 0.0
2017-Dec-15 10:30N 45°29' E 036°39'0 0.0
2017-Dec-15 10:00N 45°28' E 036°39'0 0.0
2017-Dec-15 09:30N 45°28' E 036°39'0 0.0
2017-Dec-15 09:00N 45°28' E 036°39'0 0.0
2017-Dec-15 08:30N 45°28' E 036°39'0 0.0
2017-Dec-15 08:00N 45°28' E 036°39'0 0.0
2017-Dec-15 07:21N 45°28' E 036°39'0 0.0
2017-Dec-15 07:00N 45°28' E 036°39'1 2.6
2017-Dec-15 06:30N 45°30' E 036°39'4 7.9
2017-Dec-15 06:00N 45°33' E 036°41'  
2017-Dec-13 00:37N 45°34' E 036°46'1 8.4
2017-Dec-13 00:30N 45°33' E 036°46'4 8.6
2017-Dec-12 23:59N 45°29' E 036°43'4 8.5
2017-Dec-12 23:30N 45°25' E 036°41'4 7.8
2017-Dec-12 23:00N 45°21' E 036°41'4 8.2
2017-Dec-12 22:30N 45°20' E 036°35'5 8.2
2017-Dec-12 21:56N 45°18' E 036°29'2 4.8
2017-Dec-12 21:28N 45°16' E 036°29'2 3.4
2017-Dec-12 20:53N 45°14' E 036°29'1 0.1
2017-Dec-12 14:21N 45°13' E 036°30'0 0.0
2017-Dec-11 23:53N 45°13' E 036°30'0 0.1
2017-Dec-11 23:23N 45°13' E 036°30'0 0.0
2017-Dec-11 20:32N 45°13' E 036°30'0 0.0
2017-Dec-11 14:38N 45°13' E 036°30'0 0.0
2017-Dec-11 14:14N 45°13' E 036°30'0 0.1
2017-Dec-11 13:56N 45°13' E 036°30'0 0.1
2017-Dec-11 13:23N 45°13' E 036°30'0 0.0
2017-Dec-11 12:59N 45°13' E 036°30'0 0.1
2017-Dec-11 12:26N 45°13' E 036°30'0 0.1
2017-Dec-11 11:56N 45°13' E 036°30'0 0.0
2017-Dec-11 11:29N 45°13' E 036°30'0 0.0
2017-Dec-11 10:23N 45°13' E 036°30'0 0.1
2017-Dec-11 09:53N 45°13' E 036°30'0 0.0
2017-Dec-11 09:29N 45°13' E 036°30'0 0.0
2017-Dec-11 08:56N 45°13' E 036°30'0 0.0
2017-Dec-11 08:29N 45°13' E 036°30'0 0.0
2017-Dec-11 07:59N 45°13' E 036°30'0 0.0
2017-Dec-11 07:05N 45°13' E 036°30'0 0.2
2017-Dec-11 06:59N 45°13' E 036°30'0 0.0
2017-Dec-11 06:29N 45°13' E 036°30'0 0.0
2017-Dec-11 05:56N 45°13' E 036°30'0 0.0
2017-Dec-11 05:29N 45°13' E 036°30'0 0.0
2017-Dec-11 04:56N 45°13' E 036°30'0 0.0
2017-Dec-11 04:20N 45°13' E 036°30'0 0.0
2017-Dec-11 02:56N 45°13' E 036°30'0 0.0
2017-Dec-11 02:23N 45°13' E 036°30'0 0.0
2017-Dec-11 01:59N 45°13' E 036°30'0 0.0
2017-Dec-11 01:26N 45°13' E 036°30'0 0.0
2017-Dec-11 00:26N 45°13' E 036°30'0 0.0
2017-Dec-10 23:59N 45°13' E 036°30'0 0.0
2017-Dec-10 23:23N 45°13' E 036°30'0 0.1
2017-Dec-10 22:49N 45°13' E 036°30'0 0.0
2017-Dec-10 22:25N 45°13' E 036°30'0 0.0
2017-Dec-10 21:58N 45°13' E 036°30'0 0.1
2017-Dec-10 21:25N 45°13' E 036°30'0 0.1
2017-Dec-10 20:52N 45°13' E 036°30'0 0.0
2017-Dec-10 20:28N 45°13' E 036°30'0 0.0
2017-Dec-10 19:58N 45°13' E 036°30'0 0.1
2017-Dec-10 19:28N 45°13' E 036°30'0 0.0
2017-Dec-10 18:58N 45°13' E 036°30'0 0.0
2017-Dec-10 18:28N 45°13' E 036°30'0 0.0
2017-Dec-10 17:55N 45°13' E 036°30'0 0.0
2017-Dec-10 15:55N 45°13' E 036°30'0 0.0
2017-Dec-10 15:19N 45°13' E 036°30'0 0.0
2017-Dec-10 14:55N 45°13' E 036°30'0 0.0
2017-Dec-10 14:22N 45°13' E 036°30'0 0.0
2017-Dec-10 13:58N 45°13' E 036°30'0 0.1
2017-Dec-10 13:28N 45°13' E 036°30'0 0.0
2017-Dec-10 12:55N 45°13' E 036°30'0 0.1
2017-Dec-10 12:22N 45°13' E 036°30'0 0.1
2017-Dec-10 11:49N 45°13' E 036°30'0 0.0
2017-Dec-10 11:25N 45°13' E 036°30'0 0.0
2017-Dec-10 10:55N 45°13' E 036°30'0 0.0
2017-Dec-10 10:04N 45°13' E 036°30'0 0.0
2017-Dec-10 09:49N 45°13' E 036°30'0 0.1
2017-Dec-10 09:28N 45°13' E 036°30'0 0.0
2017-Dec-10 08:58N 45°13' E 036°30'0 0.0
2017-Dec-10 08:19N 45°13' E 036°30'0 0.0
2017-Dec-10 07:52N 45°13' E 036°30'0 0.1
2017-Dec-10 07:28N 45°13' E 036°30'0 0.0
2017-Dec-10 06:58N 45°13' E 036°30'0 0.0
2017-Dec-10 06:25N 45°13' E 036°30'0 0.0
2017-Dec-10 05:49N 45°13' E 036°30'0 0.1
2017-Dec-10 05:25N 45°13' E 036°30'0 0.0
2017-Dec-10 04:58N 45°13' E 036°30'0 0.0
2017-Dec-10 04:13N 45°13' E 036°30'0 0.1
2017-Dec-10 03:55N 45°13' E 036°30'0 0.0
2017-Dec-10 02:31N 45°13' E 036°30'0 0.0
2017-Dec-10 02:19N 45°13' E 036°30'0 0.0
2017-Dec-10 01:55N 45°13' E 036°30'0 0.0
2017-Dec-10 01:28N 45°13' E 036°30'0 0.0
2017-Dec-10 00:52N 45°13' E 036°30'0 0.1
2017-Dec-09 23:45N 45°13' E 036°30'2 5.2
2017-Dec-09 23:23N 45°12' E 036°28'  
Track history (hours):
 
Tides and Currents Weather Stations Pressure Air Temp Water Temp Dewpoint Dewpoint Depression Visibility Wind Speed Wind Dir Waves Ship Positions

Yuzer 1

Last reported at 2017-Dec-16 07:48 UTC. Time now 2017-Dec-16 09:25 UTC.
Position N 45°15' E 036°28'.

Length 88 m; draft 4.4 m.

Type: Cargo ship. MMSI: 577363000.

Date/timePositionNaut miles runAvg speedWind from/ knotsBaromVisibWave heightAir tempDewpointWater temp
2017-Dec-16 07:48N 45°15' E 036°28'2 6.8
2017-Dec-16 07:30N 45°17' E 036°28'3 6.1
2017-Dec-16 07:00N 45°19' E 036°31'4 7.4
2017-Dec-16 06:30N 45°20' E 036°36'3 6.6
2017-Dec-16 06:00N 45°22' E 036°40'3 6.9
2017-Dec-16 05:30N 45°26' E 036°40'2 4.5
2017-Dec-16 05:00N 45°28' E 036°39'1 1.4
2017-Dec-16 04:28N 45°29' E 036°39'0 0.0
2017-Dec-16 03:58N 45°29' E 036°39'0 0.0
2017-Dec-16 03:28N 45°29' E 036°39'0 0.0
2017-Dec-16 02:58N 45°29' E 036°39'0 0.0
2017-Dec-16 02:28N 45°29' E 036°39'0 0.0
2017-Dec-16 01:58N 45°29' E 036°39'0 0.0
2017-Dec-16 01:25N 45°29' E 036°39'0 0.0
2017-Dec-16 00:58N 45°29' E 036°39'0 0.0
2017-Dec-16 00:28N 45°29' E 036°39'0 0.0
2017-Dec-15 23:58N 45°29' E 036°39'0 0.0
2017-Dec-15 23:28N 45°29' E 036°39'0 0.0
2017-Dec-15 22:58N 45°29' E 036°39'0 0.0
2017-Dec-15 22:25N 45°29' E 036°39'0 0.0
2017-Dec-15 21:55N 45°29' E 036°39'0 0.0
2017-Dec-15 21:28N 45°29' E 036°39'0 0.0
2017-Dec-15 20:58N 45°29' E 036°39'0 0.0
2017-Dec-15 20:28N 45°29' E 036°39'0 0.0
2017-Dec-15 19:58N 45°29' E 036°39'0 0.0
2017-Dec-15 19:25N 45°29' E 036°39'0 0.0
2017-Dec-15 18:58N 45°29' E 036°39'0 0.0
2017-Dec-15 18:28N 45°29' E 036°39'0 0.0
2017-Dec-15 17:58N 45°29' E 036°39'0 0.0
2017-Dec-15 17:28N 45°29' E 036°39'0 0.0
2017-Dec-15 16:52N 45°29' E 036°39'0 0.0
2017-Dec-15 16:28N 45°29' E 036°39'0 0.0
2017-Dec-15 15:58N 45°29' E 036°39'0 0.0
2017-Dec-15 15:28N 45°29' E 036°39'0 0.0
2017-Dec-15 14:58N 45°29' E 036°39'0 0.0
2017-Dec-15 14:28N 45°29' E 036°39'0 0.0
2017-Dec-15 14:01N 45°29' E 036°39'0 0.0
2017-Dec-15 13:31N 45°29' E 036°39'0 0.0
2017-Dec-15 13:00N 45°29' E 036°39'0 0.0
2017-Dec-15 12:30N 45°29' E 036°39'0 0.0
2017-Dec-15 12:00N 45°29' E 036°39'0 0.0
2017-Dec-15 11:27N 45°29' E 036°39'0 0.0
2017-Dec-15 10:57N 45°29' E 036°39'0 0.0
2017-Dec-15 10:30N 45°29' E 036°39'0 0.0
2017-Dec-15 10:00N 45°28' E 036°39'0 0.0
2017-Dec-15 09:30N 45°28' E 036°39'0 0.0
2017-Dec-15 09:00N 45°28' E 036°39'0 0.0
2017-Dec-15 08:30N 45°28' E 036°39'0 0.0
2017-Dec-15 08:00N 45°28' E 036°39'0 0.0
2017-Dec-15 07:21N 45°28' E 036°39'0 0.0
2017-Dec-15 07:00N 45°28' E 036°39'1 2.6
2017-Dec-15 06:30N 45°30' E 036°39'4 7.9
2017-Dec-15 06:00N 45°33' E 036°41'  
2017-Dec-13 00:37N 45°34' E 036°46'1 8.4
2017-Dec-13 00:30N 45°33' E 036°46'4 8.6
2017-Dec-12 23:59N 45°29' E 036°43'4 8.5
2017-Dec-12 23:30N 45°25' E 036°41'4 7.8
2017-Dec-12 23:00N 45°21' E 036°41'4 8.2
2017-Dec-12 22:30N 45°20' E 036°35'5 8.2
2017-Dec-12 21:56N 45°18' E 036°29'2 4.8
2017-Dec-12 21:28N 45°16' E 036°29'2 3.4
2017-Dec-12 20:53N 45°14' E 036°29'1 0.1
2017-Dec-12 14:21N 45°13' E 036°30'0 0.0
2017-Dec-11 23:53N 45°13' E 036°30'0 0.1
2017-Dec-11 23:23N 45°13' E 036°30'0 0.0
2017-Dec-11 20:32N 45°13' E 036°30'0 0.0
2017-Dec-11 14:38N 45°13' E 036°30'0 0.0
2017-Dec-11 14:14N 45°13' E 036°30'0 0.1
2017-Dec-11 13:56N 45°13' E 036°30'0 0.1
2017-Dec-11 13:23N 45°13' E 036°30'0 0.0
2017-Dec-11 12:59N 45°13' E 036°30'0 0.1
2017-Dec-11 12:26N 45°13' E 036°30'0 0.1
2017-Dec-11 11:56N 45°13' E 036°30'0 0.0
2017-Dec-11 11:29N 45°13' E 036°30'0 0.0
2017-Dec-11 10:23N 45°13' E 036°30'0 0.1
2017-Dec-11 09:53N 45°13' E 036°30'0 0.0
2017-Dec-11 09:29N 45°13' E 036°30'0 0.0
2017-Dec-11 08:56N 45°13' E 036°30'0 0.0
2017-Dec-11 08:29N 45°13' E 036°30'0 0.0
2017-Dec-11 07:59N 45°13' E 036°30'0 0.0
2017-Dec-11 07:05N 45°13' E 036°30'0 0.2
2017-Dec-11 06:59N 45°13' E 036°30'0 0.0
2017-Dec-11 06:29N 45°13' E 036°30'0 0.0
2017-Dec-11 05:56N 45°13' E 036°30'0 0.0
2017-Dec-11 05:29N 45°13' E 036°30'0 0.0
2017-Dec-11 04:56N 45°13' E 036°30'0 0.0
2017-Dec-11 04:20N 45°13' E 036°30'0 0.0
2017-Dec-11 02:56N 45°13' E 036°30'0 0.0
2017-Dec-11 02:23N 45°13' E 036°30'0 0.0
2017-Dec-11 01:59N 45°13' E 036°30'0 0.0
2017-Dec-11 01:26N 45°13' E 036°30'0 0.0
2017-Dec-11 00:26N 45°13' E 036°30'0 0.0
2017-Dec-10 23:59N 45°13' E 036°30'0 0.0
2017-Dec-10 23:23N 45°13' E 036°30'0 0.1
2017-Dec-10 22:49N 45°13' E 036°30'0 0.0
2017-Dec-10 22:25N 45°13' E 036°30'0 0.0
2017-Dec-10 21:58N 45°13' E 036°30'0 0.1
2017-Dec-10 21:25N 45°13' E 036°30'0 0.1
2017-Dec-10 20:52N 45°13' E 036°30'0 0.0
2017-Dec-10 20:28N 45°13' E 036°30'0 0.0
2017-Dec-10 19:58N 45°13' E 036°30'0 0.1
2017-Dec-10 19:28N 45°13' E 036°30'0 0.0
2017-Dec-10 18:58N 45°13' E 036°30'0 0.0
2017-Dec-10 18:28N 45°13' E 036°30'0 0.0
2017-Dec-10 17:55N 45°13' E 036°30'0 0.0
2017-Dec-10 15:55N 45°13' E 036°30'0 0.0
2017-Dec-10 15:19N 45°13' E 036°30'0 0.0
2017-Dec-10 14:55N 45°13' E 036°30'0 0.0
2017-Dec-10 14:22N 45°13' E 036°30'0 0.0
2017-Dec-10 13:58N 45°13' E 036°30'0 0.1
2017-Dec-10 13:28N 45°13' E 036°30'0 0.0
2017-Dec-10 12:55N 45°13' E 036°30'0 0.1
2017-Dec-10 12:22N 45°13' E 036°30'0 0.1
2017-Dec-10 11:49N 45°13' E 036°30'0 0.0
2017-Dec-10 11:25N 45°13' E 036°30'0 0.0
2017-Dec-10 10:55N 45°13' E 036°30'0 0.0
2017-Dec-10 10:04N 45°13' E 036°30'0 0.0
2017-Dec-10 09:49N 45°13' E 036°30'0 0.1
2017-Dec-10 09:28N 45°13' E 036°30'0 0.0
2017-Dec-10 08:58N 45°13' E 036°30'0 0.0
2017-Dec-10 08:19N 45°13' E 036°30'0 0.0
2017-Dec-10 07:52N 45°13' E 036°30'0 0.1
2017-Dec-10 07:28N 45°13' E 036°30'0 0.0
2017-Dec-10 06:58N 45°13' E 036°30'0 0.0
2017-Dec-10 06:25N 45°13' E 036°30'0 0.0
2017-Dec-10 05:49N 45°13' E 036°30'0 0.1
2017-Dec-10 05:25N 45°13' E 036°30'0 0.0
2017-Dec-10 04:58N 45°13' E 036°30'0 0.0
2017-Dec-10 04:13N 45°13' E 036°30'0 0.1
2017-Dec-10 03:55N 45°13' E 036°30'0 0.0
2017-Dec-10 02:31N 45°13' E 036°30'0 0.0
2017-Dec-10 02:19N 45°13' E 036°30'0 0.0
2017-Dec-10 01:55N 45°13' E 036°30'0 0.0
2017-Dec-10 01:28N 45°13' E 036°30'0 0.0
2017-Dec-10 00:52N 45°13' E 036°30'0 0.1
2017-Dec-09 23:45N 45°13' E 036°30'2 5.2
2017-Dec-09 23:23N 45°12' E 036°28'  

Dump ship's entire track history